Plattsburg, Missouri
Current Conditions -  °F | °C
As of 2:15 PM on Monday 26 Jan 2015 (Local Time) from KGPH Reporting Station
Clear Clear  
Wind Chill: 55°   Ceiling: Unl
Heat Index: 55°   Visibility: 10mi
Dew Point: 36°   Wind: 13mph
Humidity: 47%   Direction: 280°W
Pressure: 29.89"   Gusts: 22mph
Location:  39.57°N, 94.45°W
Report Text: KGPH 262015Z AUTO 28011G19KT 10SM CLR 13/02 A2989 RMK AO2
Loading
Personal Weather Stations






























Interactive Weather Map New forecast layout! Learn more

10-Day Weather Forecast

Advertisements
Track Severe Weather on mobile